createdAt,value
2022-10-08T00:01:35.916Z,100959.78
2022-10-08T00:04:03.270Z,100959.88
2022-10-08T00:06:32.053Z,100961.63
2022-10-08T00:09:05.212Z,100957.28
2022-10-08T00:11:36.363Z,100953.75
2022-10-08T00:14:03.898Z,100949.47
2022-10-08T00:16:37.586Z,100940.88
2022-10-08T00:19:07.557Z,100943.53
2022-10-08T00:21:37.746Z,100936.41
2022-10-08T00:24:06.443Z,100948.53
2022-10-08T00:26:37.465Z,100951.16
2022-10-08T00:29:07.980Z,100952.03
2022-10-08T00:31:37.437Z,100944.06
2022-10-08T00:34:07.568Z,100945.81
2022-10-08T00:36:39.979Z,100943.91
2022-10-08T00:39:11.486Z,100944.84
2022-10-08T00:41:39.095Z,100932.75
2022-10-08T00:44:43.166Z,100934.47
2022-10-08T00:47:20.086Z,100935.41
2022-10-08T00:49:49.276Z,100933.72
2022-10-08T00:52:18.290Z,100936.25
2022-10-08T00:54:45.638Z,100935.41
2022-10-08T00:57:12.780Z,100928.53
2022-10-08T00:59:39.353Z,100923.16
2022-10-08T01:02:08.808Z,100931.06
2022-10-08T01:04:37.783Z,100911.00
2022-10-08T01:07:25.130Z,100925.91
2022-10-08T01:10:14.074Z,100927.63
2022-10-08T01:12:55.319Z,100926.84
2022-10-08T01:15:40.265Z,100925.09
2022-10-08T01:18:14.678Z,100912.72
2022-10-08T01:21:08.713Z,100912.78
2022-10-08T01:23:58.221Z,100924.06
2022-10-08T01:26:53.954Z,100926.84
2022-10-08T01:29:29.594Z,100918.34
2022-10-08T01:32:03.283Z,100921.78
2022-10-08T01:34:32.734Z,100914.06
2022-10-08T01:37:01.254Z,100912.19
2022-10-08T01:39:32.951Z,100894.00
2022-10-08T01:42:03.347Z,100913.28
2022-10-08T01:44:39.158Z,100902.94
2022-10-08T01:47:11.092Z,100904.63
2022-10-08T01:49:58.286Z,100903.84
2022-10-08T01:52:33.499Z,100909.94
2022-10-08T01:55:05.785Z,100904.72
2022-10-08T01:57:34.805Z,100900.31
2022-10-08T02:00:08.230Z,100913.53
2022-10-08T02:02:41.622Z,100908.56
2022-10-08T02:05:10.269Z,100906.88
2022-10-08T02:07:42.241Z,100905.13
2022-10-08T02:10:15.717Z,100896.44
2022-10-08T02:12:44.130Z,100897.31
2022-10-08T02:15:17.968Z,100899.13
2022-10-08T02:17:44.452Z,100899.75
2022-10-08T02:20:34.021Z,100905.25
2022-10-08T02:23:23.814Z,100903.50
2022-10-08T02:26:02.501Z,100905.09
2022-10-08T02:28:38.132Z,100910.44
2022-10-08T02:31:10.726Z,100907.25
2022-10-08T02:33:45.489Z,100903.66
2022-10-08T02:36:16.554Z,100902.13
2022-10-08T02:38:54.229Z,100905.50
2022-10-08T02:41:30.535Z,100894.31
2022-10-08T02:44:03.105Z,100893.56
2022-10-08T02:46:35.284Z,100894.44
2022-10-08T02:49:16.301Z,100894.50
2022-10-08T02:51:49.373Z,100891.19
2022-10-08T02:54:19.774Z,100910.31
2022-10-08T02:56:58.846Z,100901.69
2022-10-08T02:59:26.553Z,100891.34
2022-10-08T03:01:58.962Z,100900.06
2022-10-08T03:04:43.454Z,100902.66
2022-10-08T03:07:12.315Z,100906.19
2022-10-08T03:09:43.899Z,100903.59
2022-10-08T03:12:11.926Z,100899.38
2022-10-08T03:14:43.236Z,100892.44
2022-10-08T03:17:14.205Z,100906.28
2022-10-08T03:19:40.802Z,100889.88
2022-10-08T03:22:07.825Z,100896.84
2022-10-08T03:24:35.915Z,100896.09
2022-10-08T03:27:02.874Z,100901.22
2022-10-08T03:29:29.594Z,100899.66
2022-10-08T03:31:56.145Z,100899.59
2022-10-08T03:34:24.986Z,100884.91
2022-10-08T03:36:51.710Z,100894.63
2022-10-08T03:39:18.267Z,100891.03
2022-10-08T03:41:44.829Z,100902.28
2022-10-08T03:44:12.771Z,100887.50
2022-10-08T03:46:39.454Z,100895.38
2022-10-08T03:49:06.449Z,100898.81
2022-10-08T03:51:33.124Z,100903.25
2022-10-08T03:53:59.752Z,100908.44
2022-10-08T03:56:26.333Z,100906.03
2022-10-08T03:58:58.214Z,100903.28
2022-10-08T04:01:26.898Z,100910.34
2022-10-08T04:03:53.656Z,100905.16
2022-10-08T04:06:20.295Z,100920.78
2022-10-08T04:08:46.842Z,100919.16
2022-10-08T04:11:15.698Z,100920.75
2022-10-08T04:13:42.953Z,100922.50
2022-10-08T04:16:16.292Z,100920.91
2022-10-08T04:18:43.414Z,100925.28
2022-10-08T04:21:12.572Z,100925.88
2022-10-08T04:23:40.955Z,100925.13
2022-10-08T04:26:08.730Z,100923.38
2022-10-08T04:28:38.758Z,100932.03
2022-10-08T04:31:09.813Z,100930.47
2022-10-08T04:33:37.119Z,100936.50
2022-10-08T04:36:09.128Z,100946.88
2022-10-08T04:38:35.794Z,100948.63
2022-10-08T04:41:10.921Z,100943.19
2022-10-08T04:43:39.712Z,100949.31
2022-10-08T04:46:09.302Z,100962.22
2022-10-08T04:48:35.907Z,100958.84
2022-10-08T04:51:09.382Z,100956.31
2022-10-08T04:53:37.119Z,100952.03
2022-10-08T04:56:16.945Z,100946.88
2022-10-08T04:58:44.584Z,100946.81
2022-10-08T05:01:13.967Z,100956.22
2022-10-08T05:03:43.453Z,100940.66
2022-10-08T05:06:10.443Z,100930.22
2022-10-08T05:08:37.577Z,100932.88
2022-10-08T05:11:04.692Z,100936.34
2022-10-08T05:13:31.558Z,100940.69
2022-10-08T05:16:03.521Z,100938.94
2022-10-08T05:18:31.490Z,100941.53
2022-10-08T05:21:02.297Z,100932.75
2022-10-08T05:23:28.816Z,100921.44
2022-10-08T05:25:55.376Z,100937.81
2022-10-08T05:28:21.984Z,100937.94
2022-10-08T05:30:48.694Z,100947.50
2022-10-08T05:33:15.244Z,100954.47
2022-10-08T05:35:41.784Z,100961.34
2022-10-08T05:38:08.345Z,100959.75
2022-10-08T05:40:34.956Z,100971.94
2022-10-08T05:43:01.593Z,100973.69
2022-10-08T05:45:28.139Z,100979.69
2022-10-08T05:47:55.675Z,100979.84
2022-10-08T05:50:22.227Z,100981.50
2022-10-08T05:52:49.390Z,100990.22
2022-10-08T05:55:16.445Z,101000.56
2022-10-08T05:57:42.999Z,100991.88
2022-10-08T06:00:10.357Z,100993.56
2022-10-08T06:02:39.689Z,100991.81
2022-10-08T06:05:06.661Z,100999.66
2022-10-08T06:07:33.400Z,101012.78
2022-10-08T06:09:59.916Z,101010.19
2022-10-08T06:12:26.602Z,101020.63
2022-10-08T06:14:53.298Z,101019.78
2022-10-08T06:17:20.081Z,101013.81
2022-10-08T06:19:46.680Z,101031.97
2022-10-08T06:22:13.245Z,101037.31
2022-10-08T06:24:39.809Z,101035.31
2022-10-08T06:27:06.451Z,101040.78
2022-10-08T06:29:33.037Z,101040.63
2022-10-08T06:31:59.560Z,101042.34
2022-10-08T06:34:26.134Z,101058.56
2022-10-08T06:36:52.672Z,101049.16
2022-10-08T06:39:19.656Z,101063.09
2022-10-08T06:41:46.237Z,101069.28
2022-10-08T06:44:14.478Z,101075.44
2022-10-08T06:46:42.579Z,101072.97
2022-10-08T06:49:10.480Z,101068.63
2022-10-08T06:51:37.590Z,101073.09
2022-10-08T06:54:07.953Z,101074.75
2022-10-08T06:56:37.124Z,101076.63
2022-10-08T06:59:05.865Z,101084.50
2022-10-08T07:01:34.618Z,101089.59
2022-10-08T07:04:03.280Z,101081.00
2022-10-08T07:06:29.897Z,101088.81
2022-10-08T07:08:59.299Z,101089.47
2022-10-08T07:11:26.649Z,101099.78
2022-10-08T07:13:54.737Z,101100.97
2022-10-08T07:16:23.618Z,101102.72
2022-10-08T07:18:52.100Z,101102.00
2022-10-08T07:21:20.350Z,101111.69
2022-10-08T07:23:47.272Z,101115.03
2022-10-08T07:26:19.112Z,101121.13
2022-10-08T07:28:57.527Z,101115.91
2022-10-08T07:31:28.387Z,101122.94
2022-10-08T07:33:57.065Z,101124.59
2022-10-08T07:36:25.114Z,101122.97
2022-10-08T07:39:00.389Z,101130.72
2022-10-08T07:41:28.927Z,101130.50
2022-10-08T07:43:59.776Z,101131.56
2022-10-08T07:46:28.651Z,101140.44
2022-10-08T07:48:56.826Z,101145.81
2022-10-08T07:51:23.415Z,101141.25
2022-10-08T07:53:49.982Z,101149.41
2022-10-08T07:56:18.851Z,101155.66
2022-10-08T07:58:45.909Z,101158.25
2022-10-08T08:01:14.792Z,101160.06
2022-10-08T08:03:42.569Z,101169.69
2022-10-08T08:06:15.177Z,101177.53
2022-10-08T08:08:45.784Z,101185.06
2022-10-08T08:11:15.413Z,101187.63
2022-10-08T08:13:42.269Z,101193.88
2022-10-08T08:16:12.159Z,101198.91
2022-10-08T08:18:42.135Z,101193.69
2022-10-08T08:21:12.004Z,101200.88
2022-10-08T08:23:41.420Z,101194.81
2022-10-08T08:26:11.168Z,101196.50
2022-10-08T08:28:38.104Z,101200.16
2022-10-08T08:31:16.882Z,101204.41
2022-10-08T08:33:47.816Z,101201.94
2022-10-08T08:36:14.358Z,101207.00
2022-10-08T08:38:40.829Z,101209.78
2022-10-08T08:41:22.206Z,101216.84
2022-10-08T08:43:49.046Z,101215.19
2022-10-08T08:46:21.118Z,101223.09
2022-10-08T08:48:51.154Z,101226.59
2022-10-08T08:51:17.713Z,101214.88
2022-10-08T08:53:44.606Z,101215.97
2022-10-08T08:56:16.239Z,101228.34
2022-10-08T08:58:53.491Z,101230.25
2022-10-08T09:01:29.644Z,101234.66
2022-10-08T09:04:03.365Z,101228.72
2022-10-08T09:06:33.655Z,101223.56
2022-10-08T09:09:07.260Z,101239.38
2022-10-08T09:11:33.918Z,101239.47
2022-10-08T09:14:18.498Z,101241.94
2022-10-08T09:16:45.345Z,101250.69
2022-10-08T09:19:12.118Z,101250.00
2022-10-08T09:21:38.763Z,101259.59
2022-10-08T09:24:05.537Z,101256.97
2022-10-08T09:26:35.050Z,101262.13
2022-10-08T09:29:02.825Z,101264.00
2022-10-08T09:31:38.485Z,101262.31
2022-10-08T09:34:07.409Z,101266.75
2022-10-08T09:36:35.695Z,101265.78
2022-10-08T09:39:05.573Z,101253.63
2022-10-08T09:41:32.553Z,101275.34
2022-10-08T09:44:08.241Z,101279.91
2022-10-08T09:46:34.777Z,101275.38
2022-10-08T09:49:21.447Z,101278.91
2022-10-08T09:51:50.208Z,101282.59
2022-10-08T09:54:27.060Z,101283.31
2022-10-08T09:56:57.400Z,101277.25
2022-10-08T09:59:27.544Z,101281.69
2022-10-08T10:01:54.743Z,101279.72
2022-10-08T10:04:33.047Z,101282.56
2022-10-08T10:07:00.402Z,101286.19
2022-10-08T10:09:55.559Z,101286.06
2022-10-08T10:12:40.319Z,101287.03
2022-10-08T10:15:22.072Z,101286.94
2022-10-08T10:17:57.145Z,101287.91
2022-10-08T10:20:31.828Z,101283.56
2022-10-08T10:23:36.618Z,101296.56
2022-10-08T10:26:06.823Z,101300.75
2022-10-08T10:28:56.439Z,101297.34
2022-10-08T10:31:37.980Z,101295.28
2022-10-08T10:34:15.016Z,101307.59
2022-10-08T10:36:52.713Z,101294.50
2022-10-08T10:39:37.990Z,101306.03
2022-10-08T10:42:28.867Z,101302.56
2022-10-08T10:44:58.539Z,101306.81
2022-10-08T10:47:32.263Z,101298.88
2022-10-08T10:50:01.835Z,101310.28
2022-10-08T10:52:54.445Z,101311.78
2022-10-08T10:55:23.681Z,101316.97
2022-10-08T10:58:02.305Z,101313.69
2022-10-08T11:00:34.925Z,101302.66
2022-10-08T11:03:16.786Z,101300.19
2022-10-08T11:05:47.315Z,101298.44
2022-10-08T11:08:33.010Z,101304.59
2022-10-08T11:11:14.583Z,101307.19
2022-10-08T11:14:19.158Z,101316.00
2022-10-08T11:16:58.698Z,101308.28
2022-10-08T11:19:34.690Z,101297.78
2022-10-08T11:22:10.846Z,101308.34
2022-10-08T11:25:02.606Z,101313.50
2022-10-08T11:27:47.683Z,101314.41
2022-10-08T11:30:19.478Z,101297.59
2022-10-08T11:32:51.594Z,101307.28
2022-10-08T11:35:44.102Z,101313.38
2022-10-08T11:38:16.762Z,101309.81
2022-10-08T11:41:00.932Z,101319.25
2022-10-08T11:43:42.928Z,101336.66
2022-10-08T11:46:32.990Z,101337.53
2022-10-08T11:49:11.825Z,101338.19
2022-10-08T11:51:44.104Z,101339.78
2022-10-08T11:54:16.652Z,101337.97
2022-10-08T11:57:20.227Z,101340.63
2022-10-08T11:59:57.209Z,101337.16
2022-10-08T12:02:26.556Z,101335.50
2022-10-08T12:04:55.944Z,101338.75
2022-10-08T12:07:33.129Z,101330.56
2022-10-08T12:10:02.625Z,101337.69
2022-10-08T12:12:48.382Z,101342.03
2022-10-08T12:15:24.100Z,101344.31
2022-10-08T12:17:59.526Z,101337.75
2022-10-08T12:20:32.839Z,101340.44
2022-10-08T12:23:08.378Z,101341.91
2022-10-08T12:26:01.249Z,101336.75
2022-10-08T12:28:35.725Z,101332.59
2022-10-08T12:31:15.703Z,101332.75
2022-10-08T12:33:53.981Z,101334.59
2022-10-08T12:36:31.441Z,101338.09
2022-10-08T12:39:03.170Z,101324.94
2022-10-08T12:41:32.214Z,101338.03
2022-10-08T12:44:56.020Z,101345.03
2022-10-08T12:47:27.688Z,101335.44
2022-10-08T12:50:32.869Z,101336.22
2022-10-08T12:53:01.374Z,101340.59
2022-10-08T12:55:31.458Z,101343.25
2022-10-08T12:58:00.446Z,101338.84
2022-10-08T13:00:33.361Z,101343.09
2022-10-08T13:03:18.124Z,101339.47
2022-10-08T13:05:45.309Z,101334.28
2022-10-08T13:08:32.124Z,101335.97
2022-10-08T13:11:02.046Z,101335.00
2022-10-08T13:13:40.566Z,101343.09
2022-10-08T13:16:15.560Z,101344.16
2022-10-08T13:18:45.596Z,101345.88
2022-10-08T13:21:37.116Z,101358.94
2022-10-08T13:24:09.927Z,101356.34
2022-10-08T13:26:45.584Z,101364.28
2022-10-08T13:29:18.188Z,101360.81
2022-10-08T13:32:02.426Z,101360.81
2022-10-08T13:34:33.534Z,101366.06
2022-10-08T13:37:03.820Z,101373.97
2022-10-08T13:39:37.469Z,101382.72
2022-10-08T13:42:09.186Z,101384.47
2022-10-08T13:44:38.703Z,101387.88
2022-10-08T13:47:05.582Z,101388.81
2022-10-08T13:49:32.780Z,101381.84
2022-10-08T13:52:00.890Z,101380.97
2022-10-08T13:54:31.696Z,101390.56
2022-10-08T13:56:58.841Z,101379.22
2022-10-08T13:59:30.241Z,101382.69
2022-10-08T14:01:57.479Z,101401.06
2022-10-08T14:04:24.283Z,101400.06
2022-10-08T14:06:53.475Z,101401.88
2022-10-08T14:09:22.492Z,101403.66
2022-10-08T14:11:55.615Z,101394.84
2022-10-08T14:14:23.983Z,101397.44
2022-10-08T14:16:51.428Z,101405.44
2022-10-08T14:19:18.273Z,101404.53
2022-10-08T14:21:45.085Z,101399.31
2022-10-08T14:24:12.448Z,101404.50
2022-10-08T14:26:39.015Z,101414.03
2022-10-08T14:29:05.649Z,101425.44
2022-10-08T14:31:32.366Z,101418.38
2022-10-08T14:33:58.986Z,101420.19
2022-10-08T14:36:35.038Z,101427.09
2022-10-08T14:39:01.660Z,101431.44
2022-10-08T14:41:28.920Z,101428.84
2022-10-08T14:43:55.473Z,101428.06
2022-10-08T14:46:22.209Z,101427.34
2022-10-08T14:48:48.749Z,101423.84
2022-10-08T14:51:15.358Z,101427.34
2022-10-08T14:53:42.242Z,101426.38
2022-10-08T14:56:12.381Z,101431.50
2022-10-08T14:58:39.519Z,101426.09
2022-10-08T15:01:06.328Z,101424.50
2022-10-08T15:03:32.985Z,101423.81
2022-10-08T15:06:00.829Z,101428.22
2022-10-08T15:08:28.640Z,101431.63
2022-10-08T15:10:55.315Z,101431.63
2022-10-08T15:13:21.976Z,101437.69
2022-10-08T15:15:48.662Z,101435.06
2022-10-08T15:18:15.530Z,101441.06
2022-10-08T15:20:42.372Z,101436.47
2022-10-08T15:23:10.416Z,101436.53
2022-10-08T15:25:37.293Z,101440.84
2022-10-08T15:28:04.238Z,101441.69
2022-10-08T15:30:30.946Z,101455.22
2022-10-08T15:33:02.615Z,101462.38
2022-10-08T15:35:29.577Z,101461.47
2022-10-08T15:37:56.138Z,101464.09
2022-10-08T15:40:22.774Z,101471.75
2022-10-08T15:42:51.658Z,101470.72
2022-10-08T15:45:18.376Z,101467.06
2022-10-08T15:47:45.133Z,101474.00
2022-10-08T15:50:11.713Z,101474.03
2022-10-08T15:52:40.947Z,101479.94
2022-10-08T15:55:09.772Z,101479.22
2022-10-08T15:57:36.384Z,101487.91
2022-10-08T16:00:03.695Z,101491.31
2022-10-08T16:02:38.545Z,101483.28
2022-10-08T16:05:05.623Z,101490.34
2022-10-08T16:07:32.165Z,101492.13
2022-10-08T16:09:58.707Z,101496.53
2022-10-08T16:12:25.303Z,101498.13
2022-10-08T16:14:51.801Z,101501.75
2022-10-08T16:17:18.390Z,101503.50
2022-10-08T16:19:44.980Z,101500.75
2022-10-08T16:22:11.587Z,101505.97
2022-10-08T16:24:38.237Z,101511.00
2022-10-08T16:27:05.020Z,101516.44
2022-10-08T16:29:31.667Z,101496.34
2022-10-08T16:31:58.605Z,101528.78
2022-10-08T16:34:27.954Z,101527.72
2022-10-08T16:36:54.585Z,101532.19
2022-10-08T16:39:21.871Z,101536.50
2022-10-08T16:41:49.357Z,101540.03
2022-10-08T16:44:18.405Z,101550.50
2022-10-08T16:46:51.062Z,101547.66
2022-10-08T16:49:27.101Z,101551.91
2022-10-08T16:51:56.239Z,101556.28
2022-10-08T16:54:23.264Z,101564.06
2022-10-08T16:56:50.305Z,101562.31
2022-10-08T16:59:22.253Z,101561.31
2022-10-08T17:01:51.361Z,101571.78
2022-10-08T17:04:19.095Z,101573.50
2022-10-08T17:06:45.954Z,101570.69
2022-10-08T17:09:12.660Z,101574.97
2022-10-08T17:11:40.019Z,101577.41
2022-10-08T17:14:07.700Z,101579.97
2022-10-08T17:16:35.836Z,101596.47
2022-10-08T17:19:03.535Z,101583.13
2022-10-08T17:21:31.209Z,101588.97
2022-10-08T17:23:58.444Z,101601.19
2022-10-08T17:26:27.626Z,101605.50
2022-10-08T17:28:55.094Z,101607.28
2022-10-08T17:31:28.898Z,101616.88
2022-10-08T17:33:55.405Z,101614.13
2022-10-08T17:36:24.237Z,101618.41
2022-10-08T17:38:52.785Z,101629.00
2022-10-08T17:41:22.632Z,101631.34
2022-10-08T17:43:50.834Z,101626.06
2022-10-08T17:46:22.462Z,101634.47
2022-10-08T17:48:49.321Z,101635.06
2022-10-08T17:51:19.307Z,101636.59
2022-10-08T17:53:52.717Z,101633.06
2022-10-08T17:56:19.861Z,101650.50
2022-10-08T17:58:46.485Z,101647.81
2022-10-08T18:01:32.960Z,101657.25
2022-10-08T18:04:02.336Z,101655.34
2022-10-08T18:06:30.997Z,101669.78
2022-10-08T18:08:59.803Z,101661.94
2022-10-08T18:11:27.763Z,101677.91
2022-10-08T18:13:54.595Z,101669.94
2022-10-08T18:16:22.201Z,101678.47
2022-10-08T18:18:49.297Z,101674.78
2022-10-08T18:21:17.827Z,101685.66
2022-10-08T18:23:46.622Z,101693.59
2022-10-08T18:26:20.288Z,101697.25
2022-10-08T18:28:49.356Z,101694.16
2022-10-08T18:31:17.102Z,101693.28
2022-10-08T18:33:45.971Z,101702.63
2022-10-08T18:36:18.243Z,101709.81
2022-10-08T18:38:46.643Z,101720.13
2022-10-08T18:41:19.345Z,101727.91
2022-10-08T18:43:47.676Z,101730.19
2022-10-08T18:46:15.833Z,101721.44
2022-10-08T18:48:42.568Z,101730.09
2022-10-08T18:51:16.672Z,101734.25
2022-10-08T18:53:44.425Z,101729.47
2022-10-08T18:56:17.190Z,101725.94
2022-10-08T18:58:44.423Z,101734.13
2022-10-08T19:01:21.328Z,101740.91
2022-10-08T19:03:49.413Z,101738.09
2022-10-08T19:06:17.740Z,101743.47
2022-10-08T19:08:44.577Z,101745.38
2022-10-08T19:11:18.734Z,101743.63
2022-10-08T19:13:45.754Z,101745.88
2022-10-08T19:16:15.829Z,101749.88
2022-10-08T19:18:43.978Z,101747.50
2022-10-08T19:21:12.260Z,101747.59
2022-10-08T19:23:39.310Z,101756.34
2022-10-08T19:26:06.965Z,101756.84
2022-10-08T19:28:36.971Z,101758.09
2022-10-08T19:31:18.175Z,101761.47
2022-10-08T19:33:49.789Z,101760.94
2022-10-08T19:36:17.481Z,101764.50
2022-10-08T19:38:44.183Z,101759.91
2022-10-08T19:41:11.995Z,101765.84
2022-10-08T19:43:42.472Z,101765.88
2022-10-08T19:46:09.088Z,101752.38
2022-10-08T19:48:36.046Z,101773.97
2022-10-08T19:51:05.071Z,101781.22
2022-10-08T19:53:32.939Z,101781.25
2022-10-08T19:56:01.418Z,101788.28
2022-10-08T19:58:27.989Z,101790.28
2022-10-08T20:01:01.745Z,101784.03
2022-10-08T20:03:28.377Z,101782.88
2022-10-08T20:05:54.886Z,101781.97
2022-10-08T20:08:21.952Z,101789.50
2022-10-08T20:10:48.807Z,101796.56
2022-10-08T20:13:15.471Z,101809.47
2022-10-08T20:15:42.066Z,101797.16
2022-10-08T20:18:08.651Z,101793.50
2022-10-08T20:20:35.164Z,101798.72
2022-10-08T20:23:01.757Z,101802.41
2022-10-08T20:25:28.395Z,101797.22
2022-10-08T20:27:54.910Z,101803.84
2022-10-08T20:30:21.499Z,101805.50
2022-10-08T20:32:48.188Z,101802.00
2022-10-08T20:35:14.914Z,101803.88
2022-10-08T20:37:41.464Z,101817.38
2022-10-08T20:40:08.226Z,101813.78
2022-10-08T20:42:34.811Z,101824.78
2022-10-08T20:45:01.408Z,101824.16
2022-10-08T20:47:27.943Z,101828.38
2022-10-08T20:49:54.487Z,101820.38
2022-10-08T20:52:21.066Z,101825.97
2022-10-08T20:54:47.588Z,101826.22
2022-10-08T20:57:14.169Z,101820.97
2022-10-08T20:59:40.714Z,101829.84
2022-10-08T21:02:07.393Z,101821.97
2022-10-08T21:04:33.989Z,101827.22
2022-10-08T21:07:00.786Z,101828.72
2022-10-08T21:09:27.597Z,101830.38
2022-10-08T21:11:55.110Z,101824.22
2022-10-08T21:14:22.639Z,101836.75
2022-10-08T21:16:49.398Z,101832.50
2022-10-08T21:19:19.084Z,101841.94
2022-10-08T21:21:45.713Z,101831.69
2022-10-08T21:24:12.366Z,101845.56
2022-10-08T21:26:41.332Z,101847.72
2022-10-08T21:29:10.926Z,101849.81
2022-10-08T21:31:38.154Z,101852.97
2022-10-08T21:34:05.668Z,101855.50
2022-10-08T21:36:38.531Z,101853.56
2022-10-08T21:39:07.281Z,101854.16
2022-10-08T21:41:36.923Z,101867.56
2022-10-08T21:44:05.118Z,101861.03
2022-10-08T21:46:34.401Z,101854.66
2022-10-08T21:49:04.341Z,101854.34
2022-10-08T21:51:32.279Z,101862.53
2022-10-08T21:54:00.881Z,101869.50
2022-10-08T21:56:30.436Z,101872.91
2022-10-08T21:58:59.078Z,101873.72
2022-10-08T22:01:49.950Z,101872.91
2022-10-08T22:04:19.658Z,101874.06
2022-10-08T22:06:47.683Z,101878.03
2022-10-08T22:09:36.107Z,101880.16
2022-10-08T22:12:02.992Z,101877.03
2022-10-08T22:14:29.697Z,101869.34
2022-10-08T22:16:56.592Z,101872.78
2022-10-08T22:19:23.349Z,101874.38
2022-10-08T22:21:49.887Z,101873.00
2022-10-08T22:24:16.876Z,101881.00
2022-10-08T22:26:46.391Z,101875.69
2022-10-08T22:29:13.709Z,101872.34
2022-10-08T22:31:40.376Z,101891.38
2022-10-08T22:34:07.359Z,101890.69
2022-10-08T22:36:39.694Z,101876.91
2022-10-08T22:39:06.886Z,101877.59
2022-10-08T22:41:34.274Z,101879.38
2022-10-08T22:44:02.752Z,101876.66
2022-10-08T22:46:34.285Z,101877.31
2022-10-08T22:49:04.213Z,101879.56
2022-10-08T22:51:31.521Z,101872.59
2022-10-08T22:53:58.085Z,101871.28
2022-10-08T22:56:28.211Z,101880.38
2022-10-08T22:58:55.247Z,101874.13
2022-10-08T23:01:24.454Z,101877.69
2022-10-08T23:03:51.273Z,101882.28
2022-10-08T23:06:17.765Z,101879.78
2022-10-08T23:08:45.612Z,101886.38
2022-10-08T23:11:13.062Z,101879.63
2022-10-08T23:13:40.090Z,101887.84
2022-10-08T23:16:11.765Z,101889.19
2022-10-08T23:18:40.760Z,101891.38
2022-10-08T23:21:13.894Z,101878.41
2022-10-08T23:23:41.088Z,101896.75
2022-10-08T23:26:08.601Z,101894.38
2022-10-08T23:28:37.243Z,101892.72
2022-10-08T23:31:08.650Z,101898.53
2022-10-08T23:33:38.126Z,101899.28
2022-10-08T23:36:13.806Z,101891.06
2022-10-08T23:38:40.778Z,101882.84
2022-10-08T23:41:10.584Z,101900.81
2022-10-08T23:43:40.277Z,101901.44
2022-10-08T23:46:07.901Z,101901.31
2022-10-08T23:48:34.873Z,101898.53
2022-10-08T23:51:02.332Z,101909.94
2022-10-08T23:53:28.979Z,101895.78
2022-10-08T23:55:55.602Z,101905.25
2022-10-08T23:58:22.213Z,101900.13
